sensor_id;sensor_type;location;lat;lon;timestamp;pressure;altitude;pressure_sealevel;temperature;humidity
55044;BME280;54902;50.420;18.854;2023-04-01T00:00:28;99548.08;;;9.16;69.51
55044;BME280;54902;50.420;18.854;2023-04-01T00:01:00;99553.52;;;9.16;69.49
55044;BME280;54902;50.420;18.854;2023-04-01T00:01:32;99546.36;;;9.15;69.50
55044;BME280;54902;50.420;18.854;2023-04-01T00:02:03;99541.05;;;9.14;69.52
55044;BME280;54902;50.420;18.854;2023-04-01T00:02:34;99548.36;;;9.13;69.52
55044;BME280;54902;50.420;18.854;2023-04-01T00:03:06;99534.73;;;9.13;69.53
55044;BME280;54902;50.420;18.854;2023-04-01T00:03:37;99537.62;;;9.12;69.53
55044;BME280;54902;50.420;18.854;2023-04-01T00:04:08;99543.91;;;9.12;69.53
55044;BME280;54902;50.420;18.854;2023-04-01T00:04:39;99550.39;;;9.11;69.55
55044;BME280;54902;50.420;18.854;2023-04-01T00:05:11;99550.39;;;9.11;69.54
55044;BME280;54902;50.420;18.854;2023-04-01T00:05:42;99549.66;;;9.09;69.54
55044;BME280;54902;50.420;18.854;2023-04-01T00:06:14;99548.66;;;9.10;69.54
55044;BME280;54902;50.420;18.854;2023-04-01T00:06:46;99556.99;;;9.09;69.51
55044;BME280;54902;50.420;18.854;2023-04-01T00:07:18;99556.11;;;9.08;69.51
55044;BME280;54902;50.420;18.854;2023-04-01T00:07:48;99556.11;;;9.08;69.53
55044;BME280;54902;50.420;18.854;2023-04-01T00:08:20;99558.14;;;9.06;69.50
55044;BME280;54902;50.420;18.854;2023-04-01T00:08:51;99552.70;;;9.06;69.53
55044;BME280;54902;50.420;18.854;2023-04-01T00:09:23;99546.40;;;9.06;69.51
55044;BME280;54902;50.420;18.854;2023-04-01T00:09:54;99551.97;;;9.04;69.53
55044;BME280;54902;50.420;18.854;2023-04-01T00:10:25;99560.14;;;9.04;69.54
55044;BME280;54902;50.420;18.854;2023-04-01T00:10:56;99550.97;;;9.05;69.54
55044;BME280;54902;50.420;18.854;2023-04-01T00:11:28;99552.12;;;9.03;69.55
55044;BME280;54902;50.420;18.854;2023-04-01T00:11:58;99552.12;;;9.03;69.53
55044;BME280;54902;50.420;18.854;2023-04-01T00:12:30;99546.83;;;9.01;69.54
55044;BME280;54902;50.420;18.854;2023-04-01T00:13:01;99550.55;;;9.00;69.55
55044;BME280;54902;50.420;18.854;2023-04-01T00:13:32;99555.01;;;9.01;69.55
55044;BME280;54902;50.420;18.854;2023-04-01T00:14:02;99556.00;;;9.00;69.55
55044;BME280;54902;50.420;18.854;2023-04-01T00:14:33;99546.13;;;8.99;69.55
55044;BME280;54902;50.420;18.854;2023-04-01T00:15:09;99545.27;;;8.99;69.55
55044;BME280;54902;50.420;18.854;2023-04-01T00:15:41;99548.13;;;8.97;69.51
55044;BME280;54902;50.420;18.854;2023-04-01T00:16:13;99548.13;;;8.97;69.52
55044;BME280;54902;50.420;18.854;2023-04-01T00:16:44;99540.96;;;8.96;69.53
55044;BME280;54902;50.420;18.854;2023-04-01T00:17:15;99543.68;;;8.96;69.58
55044;BME280;54902;50.420;18.854;2023-04-01T00:17:47;99547.44;;;8.95;69.58
55044;BME280;54902;50.420;18.854;2023-04-01T00:18:18;99542.12;;;8.94;69.58
55044;BME280;54902;50.420;18.854;2023-04-01T00:18:50;99545.72;;;8.94;69.59
55044;BME280;54902;50.420;18.854;2023-04-01T00:19:21;99544.99;;;8.92;69.58
55044;BME280;54902;50.420;18.854;2023-04-01T00:19:55;99544.99;;;8.92;69.57
55044;BME280;54902;50.420;18.854;2023-04-01T00:20:27;99546.02;;;8.91;69.58
55044;BME280;54902;50.420;18.854;2023-04-01T00:20:58;99543.30;;;8.91;69.59
55044;BME280;54902;50.420;18.854;2023-04-01T00:21:29;99548.74;;;8.91;69.58
55044;BME280;54902;50.420;18.854;2023-04-01T00:22:00;99547.02;;;8.90;69.60
55044;BME280;54902;50.420;18.854;2023-04-01T00:22:32;99543.57;;;8.88;69.57
55044;BME280;54902;50.420;18.854;2023-04-01T00:23:05;99543.57;;;8.88;69.59
55044;BME280;54902;50.420;18.854;2023-04-01T00:23:36;99539.00;;;8.89;69.60
55044;BME280;54902;50.420;18.854;2023-04-01T00:24:08;99536.40;;;8.87;69.56
55044;BME280;54902;50.420;18.854;2023-04-01T00:24:39;99546.45;;;8.87;69.56
55044;BME280;54902;50.420;18.854;2023-04-01T00:25:10;99540.00;;;8.88;69.57
55044;BME280;54902;50.420;18.854;2023-04-01T00:25:42;99548.17;;;8.88;69.57
55044;BME280;54902;50.420;18.854;2023-04-01T00:26:13;99541.00;;;8.87;69.57
55044;BME280;54902;50.420;18.854;2023-04-01T00:26:48;99545.60;;;8.86;69.56
55044;BME280;54902;50.420;18.854;2023-04-01T00:27:19;99540.16;;;8.86;69.58
55044;BME280;54902;50.420;18.854;2023-04-01T00:27:50;99542.88;;;8.86;69.58
55044;BME280;54902;50.420;18.854;2023-04-01T00:28:22;99544.73;;;8.86;69.61
55044;BME280;54902;50.420;18.854;2023-04-01T00:28:53;99544.73;;;8.86;69.61
55044;BME280;54902;50.420;18.854;2023-04-01T00:29:24;99553.92;;;8.85;69.64
55044;BME280;54902;50.420;18.854;2023-04-01T00:29:59;99544.73;;;8.86;69.63
55044;BME280;54902;50.420;18.854;2023-04-01T00:30:31;99538.44;;;8.85;69.66
55044;BME280;54902;50.420;18.854;2023-04-01T00:31:06;99538.44;;;8.85;69.64
55044;BME280;54902;50.420;18.854;2023-04-01T00:31:37;99539.44;;;8.84;69.64
55044;BME280;54902;50.420;18.854;2023-04-01T00:32:09;99541.46;;;8.82;69.65
55044;BME280;54902;50.420;18.854;2023-04-01T00:32:40;99545.04;;;8.83;69.67
55044;BME280;54902;50.420;18.854;2023-04-01T00:33:11;99538.74;;;8.82;69.67
55044;BME280;54902;50.420;18.854;2023-04-01T00:33:42;99540.59;;;8.82;69.66
55044;BME280;54902;50.420;18.854;2023-04-01T00:34:13;99537.85;;;8.82;69.63
55044;BME280;54902;50.420;18.854;2023-04-01T00:34:44;99547.91;;;8.81;69.62
55044;BME280;54902;50.420;18.854;2023-04-01T00:35:16;99546.18;;;8.80;69.64
55044;BME280;54902;50.420;18.854;2023-04-01T00:35:47;99535.29;;;8.80;69.62
55044;BME280;54902;50.420;18.854;2023-04-01T00:36:21;99548.91;;;8.80;69.61
55044;BME280;54902;50.420;18.854;2023-04-01T00:36:52;99544.45;;;8.79;69.62
55044;BME280;54902;50.420;18.854;2023-04-01T00:37:24;99535.59;;;8.77;69.63
55044;BME280;54902;50.420;18.854;2023-04-01T00:37:55;99540.04;;;8.78;69.62
55044;BME280;54902;50.420;18.854;2023-04-01T00:38:27;99542.76;;;8.78;69.61
55044;BME280;54902;50.420;18.854;2023-04-01T00:38:58;99540.04;;;8.78;69.62
55044;BME280;54902;50.420;18.854;2023-04-01T00:39:33;99527.01;;;8.72;69.63
55044;BME280;54902;50.420;18.854;2023-04-01T00:40:07;99541.03;;;8.77;69.64
55044;BME280;54902;50.420;18.854;2023-04-01T00:40:40;99541.88;;;8.78;69.64
55044;BME280;54902;50.420;18.854;2023-04-01T00:41:13;99540.20;;;8.77;69.63
55044;BME280;54902;50.420;18.854;2023-04-01T00:41:46;99533.02;;;8.76;69.61
55044;BME280;54902;50.420;18.854;2023-04-01T00:42:17;99539.31;;;8.76;69.61
55044;BME280;54902;50.420;18.854;2023-04-01T00:42:48;99534.87;;;8.75;69.60
55044;BME280;54902;50.420;18.854;2023-04-01T00:43:20;99537.59;;;8.75;69.62
55044;BME280;54902;50.420;18.854;2023-04-01T00:43:52;99544.07;;;8.74;69.67
55044;BME280;54902;50.420;18.854;2023-04-01T00:44:25;99541.34;;;8.74;69.66
55044;BME280;54902;50.420;18.854;2023-04-01T00:44:57;99541.34;;;8.74;69.66
55044;BME280;54902;50.420;18.854;2023-04-01T00:45:39;99537.90;;;8.72;69.67
55044;BME280;54902;50.420;18.854;2023-04-01T00:46:06;99542.49;;;8.72;69.67
55044;BME280;54902;50.420;18.854;2023-04-01T00:46:37;99537.05;;;8.72;69.69
55044;BME280;54902;50.420;18.854;2023-04-01T00:47:08;99547.05;;;8.71;69.66
55044;BME280;54902;50.420;18.854;2023-04-01T00:47:40;99538.88;;;8.71;69.65
55044;BME280;54902;50.420;18.854;2023-04-01T00:48:17;99539.05;;;8.70;69.67
55044;BME280;54902;50.420;18.854;2023-04-01T00:48:51;99549.09;;;8.69;69.63
55044;BME280;54902;50.420;18.854;2023-04-01T00:49:31;99547.52;;;8.67;69.61
55044;BME280;54902;50.420;18.854;2023-04-01T00:50:04;99546.52;;;8.68;69.63
55044;BME280;54902;50.420;18.854;2023-04-01T00:50:36;99548.36;;;8.68;69.62
55044;BME280;54902;50.420;18.854;2023-04-01T00:51:13;99554.83;;;8.67;69.62
55044;BME280;54902;50.420;18.854;2023-04-01T00:51:48;99560.28;;;8.67;69.63
55044;BME280;54902;50.420;18.854;2023-04-01T00:52:23;99549.39;;;8.67;69.63
55044;BME280;54902;50.420;18.854;2023-04-01T00:52:57;99549.39;;;8.67;69.64
55044;BME280;54902;50.420;18.854;2023-04-01T00:53:30;99544.94;;;8.66;69.67
55044;BME280;54902;50.420;18.854;2023-04-01T00:54:02;99555.83;;;8.66;69.66
55044;BME280;54902;50.420;18.854;2023-04-01T00:54:35;99549.51;;;8.65;69.67
55044;BME280;54902;50.420;18.854;2023-04-01T00:55:10;99558.55;;;8.66;69.67
55044;BME280;54902;50.420;18.854;2023-04-01T00:55:58;99550.39;;;8.66;69.67
55044;BME280;54902;50.420;18.854;2023-04-01T00:56:31;99554.83;;;8.67;69.70
55044;BME280;54902;50.420;18.854;2023-04-01T00:57:12;99547.66;;;8.66;69.72
55044;BME280;54902;50.420;18.854;2023-04-01T00:57:45;99553.11;;;8.66;69.73
55044;BME280;54902;50.420;18.854;2023-04-01T00:58:20;99553.95;;;8.66;69.74
55044;BME280;54902;50.420;18.854;2023-04-01T00:59:37;99544.07;;;8.65;69.78
55044;BME280;54902;50.420;18.854;2023-04-01T01:00:11;99548.51;;;8.66;69.78
55044;BME280;54902;50.420;18.854;2023-04-01T01:00:47;99547.66;;;8.66;69.81
55044;BME280;54902;50.420;18.854;2023-04-01T01:01:20;99549.39;;;8.67;69.82
55044;BME280;54902;50.420;18.854;2023-04-01T01:01:52;99545.80;;;8.66;69.83
55044;BME280;54902;50.420;18.854;2023-04-01T01:02:23;99547.66;;;8.66;69.81
55044;BME280;54902;50.420;18.854;2023-04-01T01:02:54;99542.22;;;8.66;69.82
55044;BME280;54902;50.420;18.854;2023-04-01T01:03:25;99540.50;;;8.65;69.84
55044;BME280;54902;50.420;18.854;2023-04-01T01:03:56;99553.95;;;8.66;69.83
55044;BME280;54902;50.420;18.854;2023-04-01T01:04:30;99553.11;;;8.66;69.85
55044;BME280;54902;50.420;18.854;2023-04-01T01:05:01;99545.94;;;8.65;69.86
55044;BME280;54902;50.420;18.854;2023-04-01T01:06:26;99555.10;;;8.64;69.92
55044;BME280;54902;50.420;18.854;2023-04-01T01:08:39;99550.66;;;8.63;69.96
55044;BME280;54902;50.420;18.854;2023-04-01T01:10:37;99546.25;;;8.62;70.00
55044;BME280;54902;50.420;18.854;2023-04-01T01:11:10;99546.25;;;8.62;70.00
55044;BME280;54902;50.420;18.854;2023-04-01T01:11:53;99535.36;;;8.62;70.02
55044;BME280;54902;50.420;18.854;2023-04-01T01:12:34;99548.96;;;8.62;70.01
55044;BME280;54902;50.420;18.854;2023-04-01T01:13:58;99541.95;;;8.59;70.01
55044;BME280;54902;50.420;18.854;2023-04-01T01:15:28;99541.06;;;8.59;70.08
55044;BME280;54902;50.420;18.854;2023-04-01T01:16:09;99546.51;;;8.59;70.11
55044;BME280;54902;50.420;18.854;2023-04-01T01:16:45;99540.23;;;8.58;70.12
55044;BME280;54902;50.420;18.854;2023-04-01T01:17:26;99548.39;;;8.58;70.10
55044;BME280;54902;50.420;18.854;2023-04-01T01:18:09;99543.79;;;8.59;70.10
55044;BME280;54902;50.420;18.854;2023-04-01T01:18:54;99554.67;;;8.59;70.11
55044;BME280;54902;50.420;18.854;2023-04-01T01:20:22;99550.27;;;8.58;70.11
55044;BME280;54902;50.420;18.854;2023-04-01T01:27:24;99543.94;;;8.57;70.26
55044;BME280;54902;50.420;18.854;2023-04-01T01:29:39;99544.09;;;8.56;70.30
55044;BME280;54902;50.420;18.854;2023-04-01T01:33:57;99534.08;;;8.56;70.29
55044;BME280;54902;50.420;18.854;2023-04-01T01:34:36;99529.48;;;8.57;70.33
55044;BME280;54902;50.420;18.854;2023-04-01T01:35:56;99526.77;;;8.57;70.32
55044;BME280;54902;50.420;18.854;2023-04-01T01:36:32;99537.65;;;8.57;70.33
55044;BME280;54902;50.420;18.854;2023-04-01T01:37:15;99526.77;;;8.57;70.31
55044;BME280;54902;50.420;18.854;2023-04-01T01:37:51;99534.94;;;8.57;70.36
55044;BME280;54902;50.420;18.854;2023-04-01T01:38:27;99524.05;;;8.57;70.34
55044;BME280;54902;50.420;18.854;2023-04-01T01:39:03;99535.62;;;8.59;70.35
55044;BME280;54902;50.420;18.854;2023-04-01T01:39:37;99533.94;;;8.58;70.35
55044;BME280;54902;50.420;18.854;2023-04-01T01:40:10;99539.38;;;8.58;70.36
55044;BME280;54902;50.420;18.854;2023-04-01T01:40:45;99533.94;;;8.58;70.37
55044;BME280;54902;50.420;18.854;2023-04-01T01:41:20;99539.38;;;8.58;70.37
55044;BME280;54902;50.420;18.854;2023-04-01T01:41:53;99540.23;;;8.58;70.31
55044;BME280;54902;50.420;18.854;2023-04-01T01:42:29;99530.17;;;8.59;70.30
55044;BME280;54902;50.420;18.854;2023-04-01T01:43:08;99530.17;;;8.59;70.29
55044;BME280;54902;50.420;18.854;2023-04-01T01:43:43;99532.05;;;8.58;70.32
55044;BME280;54902;50.420;18.854;2023-04-01T01:44:17;99535.62;;;8.59;70.33
55044;BME280;54902;50.420;18.854;2023-04-01T01:44:49;99524.73;;;8.59;70.33
55044;BME280;54902;50.420;18.854;2023-04-01T01:45:24;99526.47;;;8.60;70.33
55044;BME280;54902;50.420;18.854;2023-04-01T01:45:59;99527.34;;;8.60;70.33
55044;BME280;54902;50.420;18.854;2023-04-01T01:46:33;99527.34;;;8.60;70.31
55044;BME280;54902;50.420;18.854;2023-04-01T01:47:05;99522.73;;;8.61;70.27
55044;BME280;54902;50.420;18.854;2023-04-01T01:47:37;99521.90;;;8.60;70.29
55044;BME280;54902;50.420;18.854;2023-04-01T01:48:10;99529.03;;;8.61;70.31
55044;BME280;54902;50.420;18.854;2023-04-01T01:48:43;99520.02;;;8.61;70.32
55044;BME280;54902;50.420;18.854;2023-04-01T01:49:16;99528.20;;;8.61;70.32
55044;BME280;54902;50.420;18.854;2023-04-01T01:49:50;99523.59;;;8.61;70.34
55044;BME280;54902;50.420;18.854;2023-04-01T01:50:23;99516.30;;;8.62;70.31
55044;BME280;54902;50.420;18.854;2023-04-01T01:50:55;99520.72;;;8.63;70.29
55044;BME280;54902;50.420;18.854;2023-04-01T01:51:27;99517.99;;;8.63;70.27
55044;BME280;54902;50.420;18.854;2023-04-01T01:51:58;99526.16;;;8.63;70.29
55044;BME280;54902;50.420;18.854;2023-04-01T01:52:30;99520.72;;;8.63;70.30
55044;BME280;54902;50.420;18.854;2023-04-01T01:53:06;99523.43;;;8.63;70.29
55044;BME280;54902;50.420;18.854;2023-04-01T01:53:37;99519.72;;;8.64;70.29
55044;BME280;54902;50.420;18.854;2023-04-01T01:54:13;99524.16;;;8.65;70.32
55044;BME280;54902;50.420;18.854;2023-04-01T01:54:51;99523.32;;;8.64;70.29
55044;BME280;54902;50.420;18.854;2023-04-01T01:55:35;99524.16;;;8.65;70.30
55044;BME280;54902;50.420;18.854;2023-04-01T01:56:03;99532.33;;;8.65;70.33
55044;BME280;54902;50.420;18.854;2023-04-01T01:56:34;99531.33;;;8.66;70.34
55044;BME280;54902;50.420;18.854;2023-04-01T01:57:09;99531.33;;;8.66;70.39
55044;BME280;54902;50.420;18.854;2023-04-01T01:57:42;99527.72;;;8.65;70.41
55044;BME280;54902;50.420;18.854;2023-04-01T01:58:20;99528.61;;;8.66;70.40
55044;BME280;54902;50.420;18.854;2023-04-01T01:58:56;99526.74;;;8.66;70.38
55044;BME280;54902;50.420;18.854;2023-04-01T01:59:30;99537.63;;;8.66;70.36
55044;BME280;54902;50.420;18.854;2023-04-01T02:00:08;99529.45;;;8.66;70.40
55044;BME280;54902;50.420;18.854;2023-04-01T02:00:48;99522.17;;;8.67;70.47
55044;BME280;54902;50.420;18.854;2023-04-01T02:01:26;99525.88;;;8.66;70.47
55044;BME280;54902;50.420;18.854;2023-04-01T02:01:59;99530.34;;;8.67;70.47
55044;BME280;54902;50.420;18.854;2023-04-01T02:02:31;99525.88;;;8.66;70.51
55044;BME280;54902;50.420;18.854;2023-04-01T02:03:03;99524.88;;;8.67;70.60
55044;BME280;54902;50.420;18.854;2023-04-01T02:03:38;99524.01;;;8.66;70.62
55044;BME280;54902;50.420;18.854;2023-04-01T02:04:11;99525.88;;;8.66;70.63
55044;BME280;54902;50.420;18.854;2023-04-01T02:04:45;99535.90;;;8.65;70.60
55044;BME280;54902;50.420;18.854;2023-04-01T02:05:23;99520.45;;;8.66;70.57
55044;BME280;54902;50.420;18.854;2023-04-01T02:05:57;99522.17;;;8.67;70.56
55044;BME280;54902;50.420;18.854;2023-04-01T02:06:32;99524.88;;;8.67;70.55
55044;BME280;54902;50.420;18.854;2023-04-01T02:07:12;99525.88;;;8.66;70.58
55044;BME280;54902;50.420;18.854;2023-04-01T02:07:50;99521.29;;;8.66;70.59
55044;BME280;54902;50.420;18.854;2023-04-01T02:09:07;99518.57;;;8.66;70.57
55044;BME280;54902;50.420;18.854;2023-04-01T02:09:41;99528.61;;;8.66;70.57
55044;BME280;54902;50.420;18.854;2023-04-01T02:10:14;99523.17;;;8.66;70.64
55044;BME280;54902;50.420;18.854;2023-04-01T02:10:56;99524.16;;;8.65;70.65
55044;BME280;54902;50.420;18.854;2023-04-01T02:11:36;99513.27;;;8.65;70.62
55044;BME280;54902;50.420;18.854;2023-04-01T02:12:12;99523.17;;;8.66;70.65
55044;BME280;54902;50.420;18.854;2023-04-01T02:12:48;99520.45;;;8.66;70.63
55044;BME280;54902;50.420;18.854;2023-04-01T02:14:10;99518.72;;;8.65;70.57
55044;BME280;54902;50.420;18.854;2023-04-01T02:15:26;99525.88;;;8.66;70.56
55044;BME280;54902;50.420;18.854;2023-04-01T02:16:08;99522.28;;;8.65;70.53
55044;BME280;54902;50.420;18.854;2023-04-01T02:16:51;99515.85;;;8.66;70.53
55044;BME280;54902;50.420;18.854;2023-04-01T02:17:27;99523.17;;;8.66;70.57
55044;BME280;54902;50.420;18.854;2023-04-01T02:18:01;99523.17;;;8.66;70.58
55044;BME280;54902;50.420;18.854;2023-04-01T02:18:36;99517.87;;;8.64;70.59
55044;BME280;54902;50.420;18.854;2023-04-01T02:19:10;99521.45;;;8.65;70.58
55044;BME280;54902;50.420;18.854;2023-04-01T02:19:49;99520.45;;;8.66;70.59
55044;BME280;54902;50.420;18.854;2023-04-01T02:20:23;99527.61;;;8.67;70.58
55044;BME280;54902;50.420;18.854;2023-04-01T02:20:57;99522.17;;;8.67;70.66
55044;BME280;54902;50.420;18.854;2023-04-01T02:21:32;99523.17;;;8.66;70.65
55044;BME280;54902;50.420;18.854;2023-04-01T02:22:06;99531.33;;;8.66;70.64
55044;BME280;54902;50.420;18.854;2023-04-01T02:22:47;99526.74;;;8.66;70.68
55044;BME280;54902;50.420;18.854;2023-04-01T02:23:19;99525.88;;;8.66;70.66
55044;BME280;54902;50.420;18.854;2023-04-01T02:23:52;99536.77;;;8.66;70.66
55044;BME280;54902;50.420;18.854;2023-04-01T02:24:27;99525.88;;;8.66;70.65
55044;BME280;54902;50.420;18.854;2023-04-01T02:25:06;99525.88;;;8.66;70.66
55044;BME280;54902;50.420;18.854;2023-04-01T02:25:39;99530.45;;;8.65;70.58
55044;BME280;54902;50.420;18.854;2023-04-01T02:26:12;99536.77;;;8.66;70.64
55044;BME280;54902;50.420;18.854;2023-04-01T02:26:45;99525.88;;;8.66;70.66
55044;BME280;54902;50.420;18.854;2023-04-01T02:27:16;99531.33;;;8.66;70.83
55044;BME280;54902;50.420;18.854;2023-04-01T02:27:48;99531.33;;;8.66;70.84
55044;BME280;54902;50.420;18.854;2023-04-01T02:28:20;99529.45;;;8.66;70.73
55044;BME280;54902;50.420;18.854;2023-04-01T02:28:53;99538.50;;;8.67;70.69
55044;BME280;54902;50.420;18.854;2023-04-01T02:29:25;99531.33;;;8.66;70.69
55044;BME280;54902;50.420;18.854;2023-04-01T02:29:56;99531.33;;;8.66;70.72
55044;BME280;54902;50.420;18.854;2023-04-01T02:30:29;99538.61;;;8.65;70.77
55044;BME280;54902;50.420;18.854;2023-04-01T02:31:03;99529.45;;;8.66;70.75
55044;BME280;54902;50.420;18.854;2023-04-01T02:31:34;99527.72;;;8.65;70.74
55044;BME280;54902;50.420;18.854;2023-04-01T02:32:06;99521.45;;;8.65;70.71
55044;BME280;54902;50.420;18.854;2023-04-01T02:32:38;99539.50;;;8.66;70.75
55044;BME280;54902;50.420;18.854;2023-04-01T02:33:10;99535.90;;;8.65;70.78
55044;BME280;54902;50.420;18.854;2023-04-01T02:33:42;99533.05;;;8.67;70.87
55044;BME280;54902;50.420;18.854;2023-04-01T02:34:13;99536.77;;;8.66;70.96
55044;BME280;54902;50.420;18.854;2023-04-01T02:34:46;99534.21;;;8.64;70.96
55044;BME280;54902;50.420;18.854;2023-04-01T02:35:17;99536.77;;;8.66;70.98
55044;BME280;54902;50.420;18.854;2023-04-01T02:35:48;99542.22;;;8.66;70.91
55044;BME280;54902;50.420;18.854;2023-04-01T02:36:20;99543.22;;;8.65;70.90
55044;BME280;54902;50.420;18.854;2023-04-01T02:36:51;99538.61;;;8.65;70.88
55044;BME280;54902;50.420;18.854;2023-04-01T02:37:24;99535.05;;;8.65;70.86
55044;BME280;54902;50.420;18.854;2023-04-01T02:37:56;99535.90;;;8.65;70.77
55044;BME280;54902;50.420;18.854;2023-04-01T02:38:27;99535.90;;;8.65;70.70
55044;BME280;54902;50.420;18.854;2023-04-01T02:38:58;99536.77;;;8.66;70.74
55044;BME280;54902;50.420;18.854;2023-04-01T02:39:34;99546.78;;;8.65;70.77
55044;BME280;54902;50.420;18.854;2023-04-01T02:40:07;99528.75;;;8.64;70.81
55044;BME280;54902;50.420;18.854;2023-04-01T02:40:47;99536.05;;;8.64;70.83
55044;BME280;54902;50.420;18.854;2023-04-01T02:41:20;99535.20;;;8.63;70.83
55044;BME280;54902;50.420;18.854;2023-04-01T02:41:52;99525.04;;;8.56;70.90
55044;BME280;54902;50.420;18.854;2023-04-01T02:42:23;99533.33;;;8.64;70.98
55044;BME280;54902;50.420;18.854;2023-04-01T02:42:53;99541.48;;;8.64;70.99
55044;BME280;54902;50.420;18.854;2023-04-01T02:43:25;99545.22;;;8.63;71.01
55044;BME280;54902;50.420;18.854;2023-04-01T02:43:56;99547.94;;;8.63;71.03
55044;BME280;54902;50.420;18.854;2023-04-01T02:44:29;99555.10;;;8.64;71.10
55044;BME280;54902;50.420;18.854;2023-04-01T02:45:01;99558.82;;;8.63;71.17
55044;BME280;54902;50.420;18.854;2023-04-01T02:45:32;99545.22;;;8.63;71.13
55044;BME280;54902;50.420;18.854;2023-04-01T02:46:03;99546.09;;;8.63;71.12
55044;BME280;54902;50.420;18.854;2023-04-01T02:46:35;99550.66;;;8.63;71.11
55044;BME280;54902;50.420;18.854;2023-04-01T02:47:06;99550.66;;;8.63;71.05
55044;BME280;54902;50.420;18.854;2023-04-01T02:47:37;99543.52;;;8.62;71.09
55044;BME280;54902;50.420;18.854;2023-04-01T02:48:08;99535.36;;;8.62;71.08
55044;BME280;54902;50.420;18.854;2023-04-01T02:48:39;99543.52;;;8.62;71.06
55044;BME280;54902;50.420;18.854;2023-04-01T02:49:10;99548.96;;;8.62;71.07
55044;BME280;54902;50.420;18.854;2023-04-01T02:49:41;99549.96;;;8.61;71.11
55044;BME280;54902;50.420;18.854;2023-04-01T02:50:12;99550.81;;;8.61;71.02
55044;BME280;54902;50.420;18.854;2023-04-01T02:50:43;99534.50;;;8.52;71.02
55044;BME280;54902;50.420;18.854;2023-04-01T02:51:14;99548.09;;;8.61;71.02
55044;BME280;54902;50.420;18.854;2023-04-01T02:51:45;99544.52;;;8.61;71.01
55044;BME280;54902;50.420;18.854;2023-04-01T02:52:16;99550.96;;;8.60;71.01
55044;BME280;54902;50.420;18.854;2023-04-01T02:52:47;99543.52;;;8.62;71.05
55044;BME280;54902;50.420;18.854;2023-04-01T02:53:18;99547.25;;;8.61;71.09
55044;BME280;54902;50.420;18.854;2023-04-01T02:53:49;99550.81;;;8.61;71.14
55044;BME280;54902;50.420;18.854;2023-04-01T02:54:20;99549.12;;;8.60;71.21
55044;BME280;54902;50.420;18.854;2023-04-01T02:54:51;99546.39;;;8.60;71.21
55044;BME280;54902;50.420;18.854;2023-04-01T02:55:22;99542.79;;;8.60;71.22
55044;BME280;54902;50.420;18.854;2023-04-01T02:55:53;99552.84;;;8.59;71.23
55044;BME280;54902;50.420;18.854;2023-04-01T02:56:24;99548.23;;;8.60;71.22
55044;BME280;54902;50.420;18.854;2023-04-01T02:56:56;99544.66;;;8.59;71.26
55044;BME280;54902;50.420;18.854;2023-04-01T02:57:27;99545.52;;;8.60;71.24
55044;BME280;54902;50.420;18.854;2023-04-01T02:57:59;99547.39;;;8.59;71.25
55044;BME280;54902;50.420;18.854;2023-04-01T02:58:30;99547.39;;;8.59;71.25
55044;BME280;54902;50.420;18.854;2023-04-01T02:59:01;99553.68;;;8.60;71.24
55044;BME280;54902;50.420;18.854;2023-04-01T02:59:32;99553.68;;;8.60;71.27
55044;BME280;54902;50.420;18.854;2023-04-01T03:00:04;99547.39;;;8.59;71.25
55044;BME280;54902;50.420;18.854;2023-04-01T03:00:41;99551.96;;;8.59;71.25
55044;BME280;54902;50.420;18.854;2023-04-01T03:01:12;99546.51;;;8.59;71.32
55044;BME280;54902;50.420;18.854;2023-04-01T03:01:43;99554.55;;;8.60;71.29
55044;BME280;54902;50.420;18.854;2023-04-01T03:02:15;99553.68;;;8.60;71.29
55044;BME280;54902;50.420;18.854;2023-04-01T03:02:46;99551.96;;;8.59;71.26
55044;BME280;54902;50.420;18.854;2023-04-01T03:03:17;99551.96;;;8.59;71.26
55044;BME280;54902;50.420;18.854;2023-04-01T03:03:48;99555.55;;;8.59;71.33
55044;BME280;54902;50.420;18.854;2023-04-01T03:04:19;99551.96;;;8.59;71.39
55044;BME280;54902;50.420;18.854;2023-04-01T03:04:50;99553.83;;;8.58;71.42
55044;BME280;54902;50.420;18.854;2023-04-01T03:05:21;99551.96;;;8.59;71.44
55044;BME280;54902;50.420;18.854;2023-04-01T03:05:52;99548.39;;;8.58;71.35
55044;BME280;54902;50.420;18.854;2023-04-01T03:06:28;99550.27;;;8.58;71.28
55044;BME280;54902;50.420;18.854;2023-04-01T03:07:00;99551.11;;;8.58;71.22
55044;BME280;54902;50.420;18.854;2023-04-01T03:07:31;99550.27;;;8.58;71.26
55044;BME280;54902;50.420;18.854;2023-04-01T03:08:02;99561.01;;;8.59;71.25
55044;BME280;54902;50.420;18.854;2023-04-01T03:08:33;99559.28;;;8.58;71.29
55044;BME280;54902;50.420;18.854;2023-04-01T03:09:05;99553.83;;;8.58;71.30
55044;BME280;54902;50.420;18.854;2023-04-01T03:09:36;99559.28;;;8.58;71.28
55044;BME280;54902;50.420;18.854;2023-04-01T03:10:08;99552.99;;;8.58;71.34
55044;BME280;54902;50.420;18.854;2023-04-01T03:10:39;99554.67;;;8.59;71.35
55044;BME280;54902;50.420;18.854;2023-04-01T03:11:11;99557.39;;;8.59;71.37
55044;BME280;54902;50.420;18.854;2023-04-01T03:11:43;99557.39;;;8.59;71.40
55044;BME280;54902;50.420;18.854;2023-04-01T03:12:14;99557.39;;;8.59;71.40
55044;BME280;54902;50.420;18.854;2023-04-01T03:12:45;99567.45;;;8.58;71.37
55044;BME280;54902;50.420;18.854;2023-04-01T03:13:16;99560.12;;;8.59;71.33
55044;BME280;54902;50.420;18.854;2023-04-01T03:13:47;99555.70;;;8.58;71.29
55044;BME280;54902;50.420;18.854;2023-04-01T03:14:19;99555.70;;;8.58;71.30
55044;BME280;54902;50.420;18.854;2023-04-01T03:14:50;99562.00;;;8.58;71.30
55044;BME280;54902;50.420;18.854;2023-04-01T03:15:21;99555.70;;;8.58;71.31
55044;BME280;54902;50.420;18.854;2023-04-01T03:15:53;99563.71;;;8.59;71.30
55044;BME280;54902;50.420;18.854;2023-04-01T03:16:24;99557.39;;;8.59;71.32
55044;BME280;54902;50.420;18.854;2023-04-01T03:16:55;99564.72;;;8.58;71.29
55044;BME280;54902;50.420;18.854;2023-04-01T03:17:26;99559.28;;;8.58;71.26
55044;BME280;54902;50.420;18.854;2023-04-01T03:17:57;99556.55;;;8.58;71.23